Map

Track Data

SID SEASON NUMBER BASIN SUBBASIN NAME ISO_TIME NATURE LAT LON WMO_WIND WMO_PRES WMO_AGENCY TRACK_TYPE DIST2LAND LANDFALL IFLAG USA_AGENCY USA_ATCF_ID USA_LAT USA_LON USA_RECORD USA_STATUS USA_WIND USA_PRES USA_SSHS USA_R34_NE USA_R34_SE USA_R34_SW USA_R34_NW USA_R50_NE USA_R50_SE USA_R50_SW USA_R50_NW USA_R64_NE USA_R64_SE USA_R64_SW USA_R64_NW USA_POCI USA_ROCI USA_RMW USA_EYE TOKYO_LAT TOKYO_LON TOKYO_GRADE TOKYO_WIND TOKYO_PRES TOKYO_R50_DIR TOKYO_R50_LONG TOKYO_R50_SHORT TOKYO_R30_DIR TOKYO_R30_LONG TOKYO_R30_SHORT TOKYO_LAND CMA_LAT CMA_LON CMA_CAT CMA_WIND CMA_PRES HKO_LAT HKO_LON HKO_CAT HKO_WIND HKO_PRES NEWDELHI_LAT NEWDELHI_LON NEWDELHI_GRADE NEWDELHI_WIND NEWDELHI_PRES NEWDELHI_CI NEWDELHI_DP NEWDELHI_POCI REUNION_LAT REUNION_LON REUNION_TYPE REUNION_WIND REUNION_PRES REUNION_TNUM REUNION_CI REUNION_RMW REUNION_R34_NE REUNION_R34_SE REUNION_R34_SW REUNION_R34_NW REUNION_R50_NE REUNION_R50_SE REUNION_R50_SW REUNION_R50_NW REUNION_R64_NE REUNION_R64_SE REUNION_R64_SW REUNION_R64_NW BOM_LAT BOM_LON BOM_TYPE BOM_WIND BOM_PRES BOM_TNUM BOM_CI BOM_RMW BOM_R34_NE BOM_R34_SE BOM_R34_SW BOM_R34_NW BOM_R50_NE BOM_R50_SE BOM_R50_SW BOM_R50_NW BOM_R64_NE BOM_R64_SE BOM_R64_SW BOM_R64_NW BOM_ROCI BOM_POCI BOM_EYE BOM_POS_METHOD BOM_PRES_METHOD NADI_LAT NADI_LON NADI_CAT NADI_WIND NADI_PRES WELLINGTON_LAT WELLINGTON_LON WELLINGTON_WIND WELLINGTON_PRES DS824_LAT DS824_LON DS824_STAGE DS824_WIND DS824_PRES TD9636_LAT TD9636_LON TD9636_STAGE TD9636_WIND TD9636_PRES TD9635_LAT TD9635_LON TD9635_WIND TD9635_PRES TD9635_ROCI NEUMANN_LAT NEUMANN_LON NEUMANN_CLASS NEUMANN_WIND NEUMANN_PRES MLC_LAT MLC_LON MLC_CLASS MLC_WIND MLC_PRES USA_GUST BOM_GUST BOM_GUST_PER REUNION_GUST REUNION_GUST_PER USA_SEAHGT USA_SEARAD_NE USA_SEARAD_SE USA_SEARAD_SW USA_SEARAD_NW STORM_SPEED STORM_DIR
1880346S15428 1881 35 SI MM NOT_NAMED 1880-12-10 18:00:00 NR -14.5000 67.7000 main 1232 1208 __________O___ -1 -14.5000 67.7000 7 4 250
1880346S15428 1881 35 SI MM NOT_NAMED 1880-12-10 21:00:00 NR -14.5577 67.5296 main 1208 1190 __________P___ -1 -14.5577 67.5296 7 4 251
1880346S15428 1881 35 SI MM NOT_NAMED 1880-12-11 00:00:00 NR -14.6223 67.3374 main 1190 1165 __________P___ -1 -14.6223 67.3374 7 4 251
1880346S15428 1881 35 SI MM NOT_NAMED 1880-12-11 03:00:00 NR -14.7008 67.1015 main 1165 1132 __________P___ -1 -14.7008 67.1015 7 6 251
1880346S15428 1881 35 SI MM NOT_NAMED 1880-12-11 06:00:00 NR -14.8000 66.8000 main 1132 1090 __________O___ -1 -14.8000 66.8000 7 7 251
1880346S15428 1881 35 SI MM NOT_NAMED 1880-12-11 09:00:00 NR -14.9246 66.4188 main 1090 1042 __________P___ -1 -14.9246 66.4188 7 8 251
1880346S15428 1881 35 SI MM NOT_NAMED 1880-12-11 12:00:00 NR -15.0702 65.9750 main 1042 991 __________P___ -1 -15.0702 65.9750 7 9 251
1880346S15428 1881 35 SI MM NOT_NAMED 1880-12-11 15:00:00 NR -15.2307 65.4937 main 991 934 __________P___ -1 -15.2307 65.4937 7 10 251
1880346S15428 1881 35 SI MM NOT_NAMED 1880-12-11 18:00:00 NR -15.4000 65.0000 main 934 886 __________O___ -1 -15.4000 65.0000 7 10 250
1880346S15428 1881 35 SI MM NOT_NAMED 1880-12-11 21:00:00 NR -15.5635 64.5320 main 878 837 __________P___ -1 -15.5635 64.5320 7 10 250
1880346S15428 1881 35 SI MM NOT_NAMED 1880-12-12 00:00:00 NR -15.7347 64.0572 main 837 781 __________P___ -1 -15.7347 64.0572 7 10 249
1880346S15428 1881 35 SI MM NOT_NAMED 1880-12-12 03:00:00 NR -15.9135 63.5788 main 781 725 __________P___ -1 -15.9135 63.5788 7 10 248
1880346S15428 1881 35 SI MM NOT_NAMED 1880-12-12 06:00:00 NR -16.1000 63.1000 main 725 677 __________O___ -1 -16.1000 63.1000 7 10 247
1880346S15428 1881 35 SI MM NOT_NAMED 1880-12-12 09:00:00 NR -16.3006 62.6250 main 669 622 __________P___ -1 -16.3006 62.6250 7 10 246
1880346S15428 1881 35 SI MM NOT_NAMED 1880-12-12 12:00:00 NR -16.5071 62.1499 main 614 568 __________P___ -1 -16.5071 62.1499 7 10 246
1880346S15428 1881 35 SI MM NOT_NAMED 1880-12-12 15:00:00 NR -16.7100 61.6749 main 568 514 __________P___ -1 -16.7100 61.6749 7 10 247
1880346S15428 1881 35 SI MM NOT_NAMED 1880-12-12 18:00:00 NR -16.9000 61.2000 main 514 476 __________O___ -1 -16.9000 61.2000 7 10 249
1880346S15428 1881 35 SI MM NOT_NAMED 1880-12-12 21:00:00 NR -17.0519 60.7244 main 461 424 __________P___ -1 -17.0519 60.7244 7 10 252
1880346S15428 1881 35 SI MM NOT_NAMED 1880-12-13 00:00:00 NR -17.1921 60.2491 main 417 383 __________P___ -1 -17.1921 60.2491 7 10 253
1880346S15428 1881 35 SI MM NOT_NAMED 1880-12-13 03:00:00 NR -17.3362 59.7743 main 383 336 __________P___ -1 -17.3362 59.7743 7 10 251
1880346S15428 1881 35 SI MM NOT_NAMED 1880-12-13 06:00:00 NR -17.5000 59.3000 main 336 292 __________O___ -1 -17.5000 59.3000 7 10 248
1880346S15428 1881 35 SI MM NOT_NAMED 1880-12-13 09:00:00 NR -17.7073 58.8170 main 292 256 __________P___ -1 -17.7073 58.8170 7 10 245
1880346S15428 1881 35 SI MM NOT_NAMED 1880-12-13 12:00:00 NR -17.9348 58.3351 main 254 213 __________P___ -1 -17.9348 58.3351 7 10 243
1880346S15428 1881 35 SI MM NOT_NAMED 1880-12-13 15:00:00 NR -18.1698 57.8607 main 213 190 __________P___ -1 -18.1698 57.8607 7 10 242
1880346S15428 1881 35 SI MM NOT_NAMED 1880-12-13 18:00:00 NR -18.4000 57.4000 main 190 172 __________O___ -1 -18.4000 57.4000 7 10 243
1880346S15428 1881 35 SI MM NOT_NAMED 1880-12-13 21:00:00 NR -18.6027 56.9601 main 175 172 __________P___ -1 -18.6027 56.9601 7 9 244
1880346S15428 1881 35 SI MM NOT_NAMED 1880-12-14 00:00:00 NR -18.7994 56.5343 main 179 176 __________P___ -1 -18.7994 56.5343 7 9 244
1880346S15428 1881 35 SI MM NOT_NAMED 1880-12-14 03:00:00 NR -18.9964 56.1163 main 191 191 __________P___ -1 -18.9964 56.1163 7 9 243
1880346S15428 1881 35 SI MM NOT_NAMED 1880-12-14 06:00:00 NR -19.2000 55.7000 main 201 178 __________O___ -1 -19.2000 55.7000 7 9 242
1880346S15428 1881 35 SI MM NOT_NAMED 1880-12-14 09:00:00 NR -19.4258 55.2628 main 178 159 __________P___ -1 -19.4258 55.2628 7 9 241
1880346S15428 1881 35 SI MM NOT_NAMED 1880-12-14 12:00:00 NR -19.6574 54.8276 main 154 152 __________P___ -1 -19.6574 54.8276 7 9 240
1880346S15428 1881 35 SI MM NOT_NAMED 1880-12-14 15:00:00 NR -19.8852 54.4035 main 154 152 __________P___ -1 -19.8852 54.4035 7 9 240
1880346S15428 1881 35 SI MM NOT_NAMED 1880-12-14 18:00:00 NR -20.1000 54.0000 main 167 167 __________O___ -1 -20.1000 54.0000 7 8 241
1880346S15428 1881 35 SI MM NOT_NAMED 1880-12-14 21:00:00 NR -20.2948 53.6238 main 188 188 __________P___ -1 -20.2948 53.6238 7 8 241
1880346S15428 1881 35 SI MM NOT_NAMED 1880-12-15 00:00:00 NR -20.4728 53.2703 main 208 208 __________P___ -1 -20.4728 53.2703 7 7 242
1880346S15428 1881 35 SI MM NOT_NAMED 1880-12-15 03:00:00 NR -20.6394 52.9316 main 245 243 __________P___ -1 -20.6394 52.9316 7 7 242
1880346S15428 1881 35 SI MM NOT_NAMED 1880-12-15 06:00:00 NR -20.8000 52.6000 main 272 __________O___ -1 -20.8000 52.6000 7 7 242

About IBTrACS Database

This database is a web-friendly format of International Best Track Archive for Climate Stewardship (IBTrACS), a global best track data archive curated by NOAA dating back to 1842.

Updated: 2021-10-21